Austin, Canada
Current Conditions -  °F | °C
As of 4:20 PM on Friday 19 Dec 2014 (Local Time) from CYBR Reporting Station
Overcast Overcast  
Wind Chill: 23°   Ceiling: 600
Heat Index: 23°   Visibility: 10mi
Dew Point: 21°   Wind: 0mph
Humidity: 93%   Direction: NA
Pressure: 29.98"   Gusts: NA
Location:  49.95°N, 98.93°W
Report Text: CYBR 192220Z 00000KT 10SM OVC006 M05/M06 A2998 RMK ST8 SLP182
Loading
Personal Weather Stations






























Interactive Weather Map New forecast layout! Learn more

10-Day Weather Forecast

Advertisements
Track Severe Weather on mobile